Time;durP1;ratioP1;P1;durP2;ratioP2;P2;SDS_P1;SDS_P2;PMS_P1;PMS_P2;Temp;Humidity;BMP_temperature;BMP_pressure;BME280_temperature;BME280_humidity;BME280_pressure;Samples;Min_cycle;Max_cycle;Signal;HPM_P1;HPM_P2
2022/03/08 05:37:19;;;;;;;10.02;2.20;;;20.00;99.90;;;;;;5040200;28;20098;-67
2022/03/08 05:39:46;;;;;;;10.13;2.70;;;19.90;99.90;;;;;;5035564;28;20041;-67
2022/03/08 05:42:13;;;;;;;10.30;1.83;;;19.90;99.90;;;;;;5033496;28;20033;-67
2022/03/08 05:44:40;;;;;;;10.20;2.30;;;19.80;99.90;;;;;;5017075;28;20045;-67
2022/03/08 05:47:08;;;;;;;10.70;2.30;;;19.80;99.90;;;;;;5026403;28;20049;-68
2022/03/08 05:49:35;;;;;;;3.95;1.80;;;19.80;99.90;;;;;;5050937;28;20115;-68
2022/03/08 05:52:02;;;;;;;5.72;2.70;;;19.70;99.90;;;;;;5030579;28;20083;-68
2022/03/08 05:54:29;;;;;;;5.03;1.50;;;19.60;99.90;;;;;;5050966;28;20057;-69
2022/03/08 05:56:56;;;;;;;7.43;2.30;;;19.60;99.90;;;;;;5035004;28;20112;-68
2022/03/08 05:59:24;;;;;;;12.50;2.40;;;19.60;99.90;;;;;;5030117;28;20048;-69
2022/03/08 06:01:51;;;;;;;8.82;2.50;;;19.70;99.90;;;;;;5034408;28;20044;-68
2022/03/08 06:04:18;;;;;;;7.47;2.10;;;19.60;99.90;;;;;;5050532;28;20083;-70
2022/03/08 06:06:45;;;;;;;10.55;2.42;;;19.70;99.90;;;;;;5050507;28;20045;-71
2022/03/08 06:09:12;;;;;;;11.65;2.58;;;19.60;99.90;;;;;;5050373;28;20402;-70
2022/03/08 06:11:40;;;;;;;7.45;2.50;;;19.60;99.90;;;;;;5031706;28;20029;-69
2022/03/08 06:14:07;;;;;;;10.05;2.33;;;19.60;99.90;;;;;;5030500;28;20040;-69
2022/03/08 06:16:34;;;;;;;12.95;2.35;;;19.60;99.90;;;;;;5030415;28;20575;-69
2022/03/08 06:19:01;;;;;;;23.35;10.20;;;19.60;99.90;;;;;;5030282;28;20033;-70
2022/03/08 06:21:29;;;;;;;12.73;2.53;;;19.60;99.90;;;;;;5046041;28;20047;-69
2022/03/08 06:23:56;;;;;;;19.35;3.55;;;19.60;99.90;;;;;;5046887;28;20400;-68
2022/03/08 06:26:23;;;;;;;16.40;2.92;;;19.60;99.90;;;;;;5030423;28;20346;-67
2022/03/08 06:28:50;;;;;;;19.63;4.05;;;19.50;99.90;;;;;;5030265;28;20042;-68
2022/03/08 06:31:17;;;;;;;14.15;2.88;;;19.60;99.90;;;;;;5043743;28;20040;-69
2022/03/08 06:33:44;;;;;;;13.38;2.70;;;19.60;99.90;;;;;;5050231;28;20025;-69
2022/03/08 06:36:12;;;;;;;13.75;2.40;;;19.60;99.90;;;;;;5050326;28;20553;-69
2022/03/08 06:38:39;;;;;;;15.77;3.42;;;19.50;99.90;;;;;;5050227;28;20060;-70
2022/03/08 06:41:07;;;;;;;14.02;2.90;;;19.60;99.90;;;;;;5040544;28;20505;-69
2022/03/08 06:43:34;;;;;;;18.65;4.10;;;19.60;99.90;;;;;;5039774;28;20041;-70
2022/03/08 06:46:01;;;;;;;15.90;2.47;;;19.60;99.90;;;;;;5047171;28;20044;-70
2022/03/08 06:48:28;;;;;;;11.65;2.25;;;19.50;99.90;;;;;;5044202;28;20114;-71
2022/03/08 06:50:55;;;;;;;20.05;4.03;;;19.50;99.90;;;;;;5048830;28;20025;-69
2022/03/08 06:53:23;;;;;;;13.52;3.03;;;19.50;99.90;;;;;;5049841;28;20048;-69
2022/03/08 06:55:50;;;;;;;10.38;2.58;;;19.60;99.90;;;;;;5044099;28;20033;-71
2022/03/08 06:58:17;;;;;;;12.27;2.47;;;19.60;99.90;;;;;;5049341;28;20048;-70
2022/03/08 07:00:44;;;;;;;12.02;2.97;;;19.60;99.90;;;;;;5037864;28;20037;-69
2022/03/08 07:03:12;;;;;;;8.00;1.90;;;19.60;99.90;;;;;;5045260;28;20628;-71
2022/03/08 07:05:39;;;;;;;13.73;2.40;;;19.50;99.90;;;;;;5053292;28;20068;-71
2022/03/08 07:08:06;;;;;;;7.50;1.70;;;19.50;99.90;;;;;;5046098;28;20442;-71
2022/03/08 07:10:34;;;;;;;15.45;2.58;;;19.50;99.90;;;;;;5053209;28;20079;-70
2022/03/08 07:13:01;;;;;;;9.73;2.30;;;19.50;99.90;;;;;;5053703;28;20509;-72
2022/03/08 07:15:28;;;;;;;5.28;1.77;;;19.50;99.90;;;;;;5053507;28;20484;-72
2022/03/08 07:17:55;;;;;;;5.78;1.50;;;19.50;99.90;;;;;;5043845;28;20060;-71
2022/03/08 07:20:23;;;;;;;6.07;1.58;;;19.50;99.90;;;;;;5046696;28;20122;-71
2022/03/08 07:22:50;;;;;;;4.50;1.20;;;19.50;99.90;;;;;;5048339;28;20029;-72
2022/03/08 07:25:17;;;;;;;8.18;1.45;;;19.50;99.90;;;;;;5073635;28;20060;-69
2022/03/08 07:27:44;;;;;;;4.82;1.15;;;19.50;99.90;;;;;;5073448;28;20040;-70
2022/03/08 07:30:12;;;;;;;6.60;2.58;;;19.50;99.90;;;;;;5020948;28;20034;-70
2022/03/08 07:32:39;;;;;;;6.88;1.30;;;19.50;99.90;;;;;;5016214;28;20095;-70
2022/03/08 07:35:07;;;;;;;2.63;1.05;;;19.60;99.90;;;;;;5015992;28;20026;-69
2022/03/08 07:37:35;;;;;;;5.85;1.45;;;19.60;99.90;;;;;;5033374;28;20041;-70
2022/03/08 07:40:07;;;;;;;3.85;1.00;;;19.60;99.90;;;;;;5046363;28;20041;-69
2022/03/08 07:42:34;;;;;;;2.03;0.75;;;19.70;99.90;;;;;;5052955;28;20091;-70
2022/03/08 07:45:01;;;;;;;1.58;1.00;;;19.60;99.90;;;;;;5053222;28;20057;-70
2022/03/08 07:47:28;;;;;;;3.50;1.00;;;19.50;99.90;;;;;;5053066;28;20041;-70
2022/03/08 07:49:55;;;;;;;1.33;0.65;;;19.50;99.90;;;;;;5051226;28;20495;-68
2022/03/08 07:52:22;;;;;;;2.00;0.73;;;19.70;99.90;;;;;;5034675;28;20134;-67
2022/03/08 07:54:50;;;;;;;3.70;0.90;;;19.70;99.90;;;;;;5033214;28;20038;-67
2022/03/08 07:57:17;;;;;;;3.58;1.02;;;19.60;99.90;;;;;;5032979;28;20083;-66
2022/03/08 07:59:44;;;;;;;2.60;1.10;;;19.70;99.90;;;;;;5043811;28;20403;-66
2022/03/08 08:02:11;;;;;;;4.63;1.27;;;19.60;99.90;;;;;;5024761;28;20037;-67
2022/03/08 08:04:38;;;;;;;3.25;1.20;;;19.60;99.90;;;;;;5033040;28;20044;-70
2022/03/08 08:07:05;;;;;;;6.00;1.85;;;19.50;99.90;;;;;;5038048;28;20040;-70
2022/03/08 08:09:33;;;;;;;2.28;1.05;;;19.50;99.90;;;;;;5052030;28;20033;-69
2022/03/08 08:12:00;;;;;;;1.95;1.15;;;19.40;99.90;;;;;;5036570;28;20034;-69
2022/03/08 08:14:28;;;;;;;2.70;1.10;;;19.50;99.90;;;;;;5031993;28;20506;-68
2022/03/08 08:16:55;;;;;;;4.47;1.00;;;19.50;99.90;;;;;;5032788;28;20083;-67
2022/03/08 08:19:22;;;;;;;1.60;0.90;;;19.50;99.90;;;;;;5032651;28;20462;-67
2022/03/08 08:21:49;;;;;;;2.88;1.10;;;19.40;99.90;;;;;;5043286;28;20068;-68
2022/03/08 08:24:16;;;;;;;9.48;1.42;;;19.40;99.90;;;;;;5052503;28;20108;-68
2022/03/08 08:26:44;;;;;;;6.00;2.22;;;19.30;99.90;;;;;;5052445;28;20036;-67
2022/03/08 08:29:11;;;;;;;4.82;1.20;;;19.30;99.90;;;;;;5052448;28;20418;-68
2022/03/08 08:31:38;;;;;;;2.63;1.30;;;19.30;99.90;;;;;;5040465;28;20065;-68
2022/03/08 08:34:05;;;;;;;6.28;1.10;;;19.30;99.90;;;;;;5032256;28;20065;-68
2022/03/08 08:36:33;;;;;;;5.60;1.38;;;19.40;99.90;;;;;;5014220;28;20418;-67
2022/03/08 08:39:00;;;;;;;4.50;1.00;;;19.30;99.90;;;;;;5032516;28;20038;-66
2022/03/08 08:41:27;;;;;;;7.20;1.30;;;19.30;99.90;;;;;;5040695;28;20135;-67
2022/03/08 08:43:54;;;;;;;3.55;0.80;;;19.30;99.90;;;;;;5052460;28;20527;-68
2022/03/08 08:46:22;;;;;;;4.43;1.13;;;19.30;99.90;;;;;;5052086;28;20033;-68
2022/03/08 08:48:49;;;;;;;14.82;10.43;;;19.40;99.90;;;;;;5033865;28;20099;-68
2022/03/08 08:51:16;;;;;;;7.38;0.90;;;19.40;99.90;;;;;;5031725;28;20029;-68
2022/03/08 08:53:43;;;;;;;5.32;0.90;;;19.30;99.90;;;;;;5043220;28;20036;-68
2022/03/08 08:56:10;;;;;;;4.07;0.80;;;19.30;99.90;;;;;;5031914;28;20483;-68
2022/03/08 08:58:38;;;;;;;3.08;0.90;;;19.30;99.90;;;;;;5032341;28;20399;-68
2022/03/08 09:01:05;;;;;;;4.13;0.73;;;19.30;99.90;;;;;;5031113;28;20045;-69
2022/03/08 09:03:32;;;;;;;12.50;2.08;;;19.20;99.90;;;;;;5032559;28;20030;-69
2022/03/08 09:05:59;;;;;;;1.38;0.93;;;19.20;99.90;;;;;;5032581;28;20033;-69
2022/03/08 09:08:26;;;;;;;5.25;0.80;;;19.20;99.80;;;;;;5031568;28;20177;-69
2022/03/08 09:10:54;;;;;;;3.10;1.20;;;19.10;99.80;;;;;;5031557;28;20388;-70
2022/03/08 09:13:22;;;;;;;3.92;1.20;;;19.10;99.60;;;;;;5014216;28;20553;-69
2022/03/08 09:15:49;;;;;;;4.18;0.93;;;19.10;99.60;;;;;;4997603;28;20408;-69
2022/03/08 09:18:17;;;;;;;4.03;1.20;;;19.10;99.60;;;;;;5009767;28;20124;-67
2022/03/08 09:20:45;;;;;;;2.97;0.93;;;19.10;99.60;;;;;;5033139;28;20033;-69
2022/03/08 09:23:12;;;;;;;6.15;1.40;;;19.10;99.60;;;;;;5051506;28;20091;-70
2022/03/08 09:25:39;;;;;;;2.97;0.80;;;19.10;99.70;;;;;;5050908;28;20035;-69
2022/03/08 09:28:07;;;;;;;3.65;1.10;;;19.00;99.60;;;;;;5030663;28;20040;-69
2022/03/08 09:30:35;;;;;;;5.45;1.08;;;19.00;99.60;;;;;;5031297;28;20472;-69
2022/03/08 09:33:03;;;;;;;2.92;0.88;;;19.00;99.60;;;;;;5011409;28;20057;-67
2022/03/08 09:35:30;;;;;;;4.90;1.08;;;19.00;99.70;;;;;;5028854;28;20029;-68
2022/03/08 09:37:57;;;;;;;2.17;1.10;;;19.00;99.60;;;;;;5031115;28;20474;-68
2022/03/08 09:40:24;;;;;;;6.47;2.20;;;19.00;99.60;;;;;;5012983;28;20108;-67
2022/03/08 09:42:52;;;;;;;1.58;0.88;;;19.10;99.60;;;;;;5006118;28;20029;-67
2022/03/08 09:45:19;;;;;;;6.28;1.27;;;19.00;99.60;;;;;;5027456;28;20033;-68
2022/03/08 09:47:46;;;;;;;6.65;1.33;;;19.00;99.50;;;;;;5030717;28;20049;-67
2022/03/08 09:50:14;;;;;;;7.28;1.67;;;19.00;99.60;;;;;;5015952;28;20064;-66
2022/03/08 09:52:41;;;;;;;5.53;1.45;;;19.00;99.60;;;;;;5032090;28;20116;-67
2022/03/08 09:55:11;;;;;;;6.07;1.65;;;19.00;99.60;;;;;;5032394;28;20025;-66
2022/03/08 09:57:39;;;;;;;4.85;1.38;;;19.00;99.50;;;;;;5030846;28;20049;-66
2022/03/08 10:00:06;;;;;;;9.73;2.05;;;19.00;99.60;;;;;;5013525;28;20540;-67
2022/03/08 10:02:56;;;;;;;11.45;1.80;;;19.00;99.60;;;;;;5031133;28;20453;-66
2022/03/08 10:05:25;;;;;;;5.57;1.35;;;19.00;99.60;;;;;;5031414;28;20064;-66
2022/03/08 10:08:16;;;;;;;7.97;1.70;;;19.00;99.50;;;;;;5030356;28;20417;-67
2022/03/08 10:10:45;;;;;;;8.32;1.75;;;19.10;99.60;;;;;;5030951;28;20473;-66
2022/03/08 10:13:13;;;;;;;7.38;1.40;;;19.10;99.60;;;;;;5030923;28;20047;-66
2022/03/08 10:15:41;;;;;;;7.05;1.40;;;19.00;99.60;;;;;;5031508;28;20042;-67
2022/03/08 10:18:08;;;;;;;8.82;1.40;;;19.00;99.60;;;;;;5050422;28;20091;-66
2022/03/08 10:20:35;;;;;;;8.45;1.30;;;19.00;99.60;;;;;;5032514;28;20099;-66
2022/03/08 10:23:13;;;;;;;9.18;2.10;;;19.00;99.70;;;;;;5027403;28;20033;-65
2022/03/08 10:25:41;;;;;;;10.57;1.88;;;18.80;99.70;;;;;;5048965;28;20471;-65
2022/03/08 10:28:08;;;;;;;14.48;2.33;;;18.90;99.70;;;;;;5032780;28;20543;-65
2022/03/08 10:30:45;;;;;;;13.50;2.22;;;18.80;99.80;;;;;;5049444;28;20074;-65
2022/03/08 10:33:30;;;;;;;18.55;2.55;;;18.90;99.80;;;;;;5050005;28;20044;-65
2022/03/08 10:35:57;;;;;;;11.75;2.38;;;18.80;99.90;;;;;;5034857;28;20053;-65
2022/03/08 10:38:24;;;;;;;18.08;2.67;;;18.90;99.90;;;;;;5053953;28;20091;-65
2022/03/08 10:40:51;;;;;;;17.65;2.22;;;18.90;99.90;;;;;;5044644;28;20233;-65
2022/03/08 10:43:19;;;;;;;18.23;2.67;;;18.80;99.90;;;;;;5016832;28;20038;-64
2022/03/08 10:45:51;;;;;;;10.90;2.10;;;18.90;99.90;;;;;;5034658;28;20129;-66
2022/03/08 10:48:18;;;;;;;10.10;1.60;;;18.80;99.90;;;;;;5017260;28;20381;-66
2022/03/08 10:50:49;;;;;;;12.27;1.90;;;18.80;99.90;;;;;;5019909;28;20139;-64
2022/03/08 10:53:15;;;;;;;;;;;18.80;99.90;;;;;;5054845;28;20560;-64
2022/03/08 10:55:49;;;;;;;18.58;2.08;;;18.80;99.90;;;;;;5054034;28;19947;-64
2022/03/08 10:58:17;;;;;;;16.58;2.30;;;18.80;99.90;;;;;;5054081;28;20025;-64
2022/03/08 11:00:54;;;;;;;8.90;1.98;;;18.80;99.90;;;;;;5011817;28;20029;-65
2022/03/08 11:03:23;;;;;;;11.60;1.75;;;18.80;99.90;;;;;;4999991;28;20060;-65
2022/03/08 11:05:53;;;;;;;12.23;1.73;;;18.80;99.90;;;;;;5037942;28;20503;-64
2022/03/08 11:08:21;;;;;;;12.75;2.03;;;18.80;99.90;;;;;;5036581;28;20394;-65
2022/03/08 11:10:48;;;;;;;19.27;2.28;;;18.70;99.90;;;;;;5034786;28;20088;-64
2022/03/08 11:13:16;;;;;;;17.02;2.20;;;18.70;99.90;;;;;;5053539;28;20029;-65
2022/03/08 11:15:44;;;;;;;13.80;2.05;;;18.70;99.90;;;;;;5053905;28;20033;-66
2022/03/08 11:18:12;;;;;;;10.40;2.10;;;18.70;99.90;;;;;;5054184;28;20029;-65
2022/03/08 11:20:41;;;;;;;16.00;2.70;;;18.70;99.90;;;;;;5028916;28;20030;-66
2022/03/08 11:23:09;;;;;;;12.68;2.13;;;18.70;99.90;;;;;;5033937;28;20029;-66
2022/03/08 11:25:41;;;;;;;13.60;1.90;;;18.60;99.90;;;;;;5015995;28;20025;-65
2022/03/08 11:28:08;;;;;;;12.60;2.60;;;18.60;99.90;;;;;;5016775;28;20041;-66
2022/03/08 11:30:40;;;;;;;11.88;1.88;;;18.60;99.90;;;;;;5016113;28;20033;-66
2022/03/08 11:33:17;;;;;;;7.45;1.88;;;18.60;99.90;;;;;;5015707;28;20116;-65
2022/03/08 11:35:51;;;;;;;11.48;1.88;;;18.70;99.90;;;;;;5018191;28;20056;-67
2022/03/08 11:38:18;;;;;;;5.95;1.25;;;18.70;99.90;;;;;;5035223;28;20111;-67
2022/03/08 11:41:03;;;;;;;9.10;1.50;;;18.70;99.90;;;;;;5053409;28;20141;-66
2022/03/08 11:43:46;;;;;;;7.20;1.23;;;18.60;99.90;;;;;;5035627;28;20041;-66
2022/03/08 11:46:21;;;;;;;4.25;1.20;;;18.50;99.90;;;;;;5039796;28;20037;-67
2022/03/08 11:48:59;;;;;;;9.23;1.52;;;18.50;99.90;;;;;;5025551;28;20048;-66
2022/03/08 11:51:28;;;;;;;7.38;1.42;;;18.50;99.90;;;;;;5052733;28;20032;-66
2022/03/08 11:54:08;;;;;;;5.10;1.35;;;18.40;99.90;;;;;;5053207;28;20033;-67
2022/03/08 11:57:00;;;;;;;4.57;1.30;;;18.40;99.90;;;;;;5019671;28;20044;-66
2022/03/08 11:59:27;;;;;;;8.27;1.60;;;18.40;99.90;;;;;;5032999;28;20084;-66
2022/03/08 12:01:57;;;;;;;3.88;1.30;;;18.40;99.90;;;;;;5033520;28;20394;-67
2022/03/08 12:04:24;;;;;;;17.58;1.88;;;18.30;99.90;;;;;;5032759;28;20117;-66
2022/03/08 12:06:58;;;;;;;7.53;1.35;;;18.30;99.90;;;;;;5042940;28;20045;-66
2022/03/08 12:09:26;;;;;;;9.70;1.77;;;18.30;99.90;;;;;;5033207;28;20034;-68
2022/03/08 12:11:59;;;;;;;5.53;1.50;;;18.30;99.90;;;;;;5033241;28;20037;-66
2022/03/08 12:14:26;;;;;;;9.90;1.95;;;18.20;99.90;;;;;;5015149;28;20034;-66
2022/03/08 12:17:15;;;;;;;4.85;1.60;;;18.20;99.90;;;;;;5032531;28;20104;-66
2022/03/08 12:19:47;;;;;;;11.32;1.60;;;18.20;99.90;;;;;;5013368;28;20065;-67
2022/03/08 12:22:16;;;;;;;7.90;1.75;;;18.20;99.90;;;;;;5031306;28;20036;-66
2022/03/08 12:24:48;;;;;;;9.23;2.00;;;18.20;99.90;;;;;;5032803;28;20029;-67
2022/03/08 12:27:16;;;;;;;16.90;2.00;;;18.30;99.90;;;;;;5032308;28;20052;-66
2022/03/08 12:29:56;;;;;;;9.82;1.83;;;18.20;99.90;;;;;;5051305;28;20509;-67
2022/03/08 12:32:33;;;;;;;6.93;1.77;;;18.20;99.90;;;;;;5051792;28;20040;-67
2022/03/08 12:35:04;;;;;;;7.05;1.60;;;18.10;99.90;;;;;;5052286;28;20037;-66
2022/03/08 12:37:36;;;;;;;;;;;18.10;99.90;;;;;;5034738;28;20045;-66
2022/03/08 12:40:08;;;;;;;7.75;1.63;;;18.10;99.90;;;;;;5040700;28;19909;-66
2022/03/08 12:42:37;;;;;;;12.50;1.80;;;18.10;99.90;;;;;;5032107;28;20124;-66
2022/03/08 12:45:15;;;;;;;8.80;1.70;;;18.10;99.90;;;;;;5032081;28;20038;-67
2022/03/08 12:47:55;;;;;;;10.20;1.52;;;18.10;99.90;;;;;;5032410;28;20412;-66
2022/03/08 12:50:23;;;;;;;10.13;1.48;;;18.10;99.90;;;;;;5038780;28;20136;-67
2022/03/08 12:53:35;;;;;;;6.65;1.77;;;18.10;99.90;;;;;;4998466;28;20040;-66
2022/03/08 12:56:04;;;;;;;9.10;2.28;;;18.00;99.90;;;;;;5015352;28;20038;-66
2022/03/08 12:58:32;;;;;;;6.05;1.40;;;18.00;99.90;;;;;;5031807;28;20040;-66
2022/03/08 13:01:06;;;;;;;7.05;1.50;;;18.00;99.90;;;;;;5014917;28;20112;-66
2022/03/08 13:03:35;;;;;;;7.68;1.70;;;18.00;99.90;;;;;;5050027;28;20052;-66
2022/03/08 19:24:45;;;;;;;4.53;0.57;;;19.30;99.50;;;;;;5049601;28;20533;-66
2022/03/08 19:27:12;;;;;;;1.30;0.20;;;19.30;99.50;;;;;;5071592;28;20052;-65
2022/03/08 19:29:40;;;;;;;1.25;0.40;;;19.30;99.60;;;;;;5073347;28;20052;-66
2022/03/08 19:32:07;;;;;;;0.75;0.60;;;19.30;99.50;;;;;;5073718;28;20432;-65
2022/03/08 19:34:34;;;;;;;1.42;0.70;;;19.30;99.50;;;;;;5071053;28;20048;-66
2022/03/08 19:37:02;;;;;;;0.88;0.57;;;19.30;99.60;;;;;;5053279;28;20087;-65
2022/03/08 19:39:29;;;;;;;0.70;0.43;;;19.30;99.60;;;;;;5053437;28;20604;-66
2022/03/08 19:41:56;;;;;;;1.63;0.43;;;19.40;99.60;;;;;;5052959;28;20033;-68
2022/03/08 19:44:23;;;;;;;3.00;0.88;;;19.30;99.60;;;;;;5053463;28;20029;-66
2022/03/08 19:46:51;;;;;;;0.85;0.70;;;19.30;99.60;;;;;;5053298;28;20039;-66
2022/03/08 19:49:18;;;;;;;0.60;0.60;;;19.30;99.60;;;;;;5058012;28;20025;-66
2022/03/08 19:51:45;;;;;;;0.77;0.52;;;19.40;99.60;;;;;;5055552;28;20086;-65
2022/03/08 19:54:12;;;;;;;0.45;0.43;;;19.30;99.60;;;;;;5071060;28;20044;-66
2022/03/08 19:56:40;;;;;;;0.35;0.30;;;19.30;99.60;;;;;;5071608;28;20521;-65
2022/03/08 19:59:07;;;;;;;2.53;0.50;;;19.30;99.60;;;;;;5041926;28;20051;-65
2022/03/08 20:01:34;;;;;;;2.05;0.50;;;19.30;99.60;;;;;;5052772;28;20029;-66
2022/03/08 20:04:02;;;;;;;0.98;0.52;;;19.30;99.60;;;;;;5052829;28;20064;-66
2022/03/08 20:06:29;;;;;;;1.08;0.32;;;19.30;99.60;;;;;;5052882;28;20035;-66
2022/03/08 20:08:56;;;;;;;0.60;0.50;;;19.30;99.60;;;;;;5067075;28;20478;-66
2022/03/08 20:11:24;;;;;;;4.38;0.63;;;19.30;99.60;;;;;;5063988;28;20438;-66
2022/03/08 20:13:53;;;;;;;4.07;0.60;;;19.30;99.60;;;;;;5053068;28;20040;-66
2022/03/08 20:16:22;;;;;;;1.87;1.00;;;19.40;99.70;;;;;;5072842;28;20122;-65
2022/03/08 20:18:49;;;;;;;11.60;10.45;;;19.40;99.70;;;;;;5072757;28;20554;-65
2022/03/08 20:21:16;;;;;;;7.32;4.35;;;19.40;99.70;;;;;;5054451;28;20036;-66
2022/03/08 20:23:43;;;;;;;5.97;1.60;;;19.20;99.50;;;;;;5058617;28;20043;-66
2022/03/08 20:26:10;;;;;;;2.22;1.25;;;19.10;99.30;;;;;;5051608;28;20037;-65
2022/03/08 20:28:37;;;;;;;1.67;0.88;;;19.20;99.50;;;;;;5043176;28;20132;-67
2022/03/08 20:31:05;;;;;;;1.65;0.88;;;19.10;99.30;;;;;;5032115;28;20481;-65
2022/03/08 20:33:32;;;;;;;3.40;0.70;;;19.10;99.30;;;;;;5031723;28;20470;-65
2022/03/08 20:36:01;;;;;;;7.72;1.35;;;19.20;99.40;;;;;;5014446;28;20030;-65
2022/03/08 20:38:29;;;;;;;1.77;0.95;;;19.10;99.20;;;;;;5015124;28;20041;-65
2022/03/08 20:40:56;;;;;;;1.10;0.65;;;19.00;99.10;;;;;;5032208;28;20018;-65
2022/03/08 20:43:26;;;;;;;3.25;1.20;;;18.80;98.90;;;;;;5046423;28;20399;-65
2022/03/08 20:45:54;;;;;;;1.80;1.20;;;18.90;99.10;;;;;;5052336;28;20367;-65
2022/03/08 20:48:21;;;;;;;2.20;1.00;;;19.10;99.40;;;;;;5052000;28;20120;-65
2022/03/08 20:50:48;;;;;;;3.42;0.93;;;19.20;99.50;;;;;;5052401;28;20079;-65
2022/03/08 20:53:17;;;;;;;1.52;1.13;;;19.20;99.50;;;;;;5051768;28;20025;-65
2022/03/08 23:02:45;;;;;;;4.95;1.45;;;19.70;93.50;;;;;;5047942;28;20522;-64
2022/03/08 23:05:12;;;;;;;4.43;1.33;;;19.70;93.40;;;;;;5028574;28;20081;-64
2022/03/08 23:07:39;;;;;;;5.57;1.80;;;19.70;92.70;;;;;;5040453;28;20049;-62
2022/03/08 23:10:07;;;;;;;1.17;0.77;;;19.80;93.20;;;;;;5028578;28;20141;-64
2022/03/08 23:12:34;;;;;;;2.75;1.15;;;19.80;92.60;;;;;;5049825;28;20075;-63
2022/03/08 23:15:02;;;;;;;3.03;1.10;;;19.70;91.40;;;;;;5049210;28;20128;-63
2022/03/08 23:17:29;;;;;;;2.42;0.95;;;19.80;92.80;;;;;;5049243;28;20033;-63
2022/03/08 23:19:56;;;;;;;3.67;1.10;;;19.80;93.20;;;;;;5049866;28;20071;-62
2022/03/08 23:22:23;;;;;;;4.63;1.25;;;19.80;93.20;;;;;;5049620;28;20114;-61
2022/03/08 23:24:50;;;;;;;2.92;0.98;;;19.80;92.50;;;;;;5031882;28;20048;-63
2022/03/08 23:27:18;;;;;;;5.85;1.10;;;19.80;90.80;;;;;;5049902;28;20029;-62
2022/03/08 23:29:45;;;;;;;3.25;1.30;;;19.90;90.90;;;;;;5029731;28;20053;-62
2022/03/08 23:32:12;;;;;;;3.50;1.10;;;20.00;91.50;;;;;;5029657;28;20030;-62
2022/03/08 23:34:39;;;;;;;3.00;1.20;;;20.00;90.50;;;;;;5048043;28;20079;-63
2022/03/08 23:37:06;;;;;;;4.47;1.88;;;20.10;89.90;;;;;;5048751;28;20045;-63
2022/03/08 23:39:34;;;;;;;2.30;0.82;;;20.20;89.70;;;;;;5031016;28;20056;-62
2022/03/08 23:42:01;;;;;;;3.35;0.98;;;20.30;87.20;;;;;;5031138;28;20029;-62
2022/03/08 23:44:28;;;;;;;3.72;1.30;;;20.30;88.20;;;;;;5031994;28;20049;-62
2022/03/08 23:46:55;;;;;;;2.00;1.10;;;20.30;88.30;;;;;;5030328;28;20099;-62
2022/03/08 23:49:22;;;;;;;7.97;3.33;;;20.40;89.20;;;;;;5040579;28;20041;-62
2022/03/08 23:51:50;;;;;;;5.03;1.05;;;20.50;88.70;;;;;;5029494;28;20049;-62
2022/03/08 23:54:17;;;;;;;2.50;1.30;;;20.50;86.90;;;;;;5051271;28;20040;-62
2022/03/08 23:56:44;;;;;;;2.65;1.20;;;20.50;87.40;;;;;;5051160;28;20037;-62
2022/03/08 23:59:11;;;;;;;2.60;1.10;;;20.60;86.80;;;;;;5051092;28;20067;-62
